sensor_id;sensor_type;location;lat;lon;timestamp;P1;durP1;ratioP1;P2;durP2;ratioP2
58214;SDS011;44011;52.218;1.480;2024-02-21T00:00:43;9.27;;;2.30;;
58214;SDS011;44011;52.218;1.480;2024-02-21T00:03:09;12.40;;;2.85;;
58214;SDS011;44011;52.218;1.480;2024-02-21T00:05:34;10.32;;;2.60;;
58214;SDS011;44011;52.218;1.480;2024-02-21T00:07:59;6.38;;;2.20;;
58214;SDS011;44011;52.218;1.480;2024-02-21T00:10:25;8.15;;;2.90;;
58214;SDS011;44011;52.218;1.480;2024-02-21T00:12:50;15.07;;;2.92;;
58214;SDS011;44011;52.218;1.480;2024-02-21T00:15:16;10.43;;;3.55;;
58214;SDS011;44011;52.218;1.480;2024-02-21T00:17:41;6.78;;;2.42;;
58214;SDS011;44011;52.218;1.480;2024-02-21T00:20:06;9.82;;;2.45;;
58214;SDS011;44011;52.218;1.480;2024-02-21T00:22:32;9.18;;;2.70;;
58214;SDS011;44011;52.218;1.480;2024-02-21T00:24:58;6.65;;;2.50;;
58214;SDS011;44011;52.218;1.480;2024-02-21T00:27:23;16.23;;;3.60;;
58214;SDS011;44011;52.218;1.480;2024-02-21T00:29:49;8.50;;;2.80;;
58214;SDS011;44011;52.218;1.480;2024-02-21T00:32:14;9.68;;;2.63;;
58214;SDS011;44011;52.218;1.480;2024-02-21T00:34:39;10.43;;;2.50;;
58214;SDS011;44011;52.218;1.480;2024-02-21T00:37:04;17.33;;;3.15;;
58214;SDS011;44011;52.218;1.480;2024-02-21T00:39:30;10.15;;;2.83;;
58214;SDS011;44011;52.218;1.480;2024-02-21T00:41:56;8.65;;;2.63;;
58214;SDS011;44011;52.218;1.480;2024-02-21T00:44:21;10.32;;;2.58;;
58214;SDS011;44011;52.218;1.480;2024-02-21T00:46:46;11.05;;;2.80;;
58214;SDS011;44011;52.218;1.480;2024-02-21T00:49:12;5.85;;;2.50;;
58214;SDS011;44011;52.218;1.480;2024-02-21T00:51:37;11.73;;;2.67;;
58214;SDS011;44011;52.218;1.480;2024-02-21T00:54:02;11.98;;;3.15;;
58214;SDS011;44011;52.218;1.480;2024-02-21T00:56:28;12.40;;;2.55;;
58214;SDS011;44011;52.218;1.480;2024-02-21T00:58:53;12.40;;;3.35;;
58214;SDS011;44011;52.218;1.480;2024-02-21T01:01:22;7.95;;;2.08;;
58214;SDS011;44011;52.218;1.480;2024-02-21T01:03:47;11.57;;;3.55;;
58214;SDS011;44011;52.218;1.480;2024-02-21T01:06:13;9.57;;;3.25;;
58214;SDS011;44011;52.218;1.480;2024-02-21T01:08:38;9.05;;;2.63;;
58214;SDS011;44011;52.218;1.480;2024-02-21T01:11:03;8.20;;;2.30;;
58214;SDS011;44011;52.218;1.480;2024-02-21T01:13:28;5.53;;;2.65;;
58214;SDS011;44011;52.218;1.480;2024-02-21T01:15:54;8.85;;;2.70;;
58214;SDS011;44011;52.218;1.480;2024-02-21T01:18:19;11.57;;;3.25;;
58214;SDS011;44011;52.218;1.480;2024-02-21T01:20:44;11.30;;;2.40;;
58214;SDS011;44011;52.218;1.480;2024-02-21T01:23:09;13.23;;;2.30;;
58214;SDS011;44011;52.218;1.480;2024-02-21T01:25:34;11.85;;;3.15;;
58214;SDS011;44011;52.218;1.480;2024-02-21T01:28:00;10.43;;;2.58;;
58214;SDS011;44011;52.218;1.480;2024-02-21T01:30:25;6.10;;;2.90;;
58214;SDS011;44011;52.218;1.480;2024-02-21T01:32:50;13.63;;;2.75;;
58214;SDS011;44011;52.218;1.480;2024-02-21T01:35:15;9.90;;;2.50;;
58214;SDS011;44011;52.218;1.480;2024-02-21T01:37:41;15.63;;;3.55;;
58214;SDS011;44011;52.218;1.480;2024-02-21T01:40:06;10.75;;;2.63;;
58214;SDS011;44011;52.218;1.480;2024-02-21T01:42:31;4.93;;;2.33;;
58214;SDS011;44011;52.218;1.480;2024-02-21T01:44:57;7.28;;;2.65;;
58214;SDS011;44011;52.218;1.480;2024-02-21T01:47:22;14.38;;;4.10;;
58214;SDS011;44011;52.218;1.480;2024-02-21T01:49:48;12.88;;;2.63;;
58214;SDS011;44011;52.218;1.480;2024-02-21T01:52:14;10.55;;;3.00;;
58214;SDS011;44011;52.218;1.480;2024-02-21T01:54:40;10.65;;;2.38;;
58214;SDS011;44011;52.218;1.480;2024-02-21T01:57:05;15.55;;;3.22;;
58214;SDS011;44011;52.218;1.480;2024-02-21T01:59:31;12.43;;;2.65;;
58214;SDS011;44011;52.218;1.480;2024-02-21T02:01:56;11.55;;;2.80;;
58214;SDS011;44011;52.218;1.480;2024-02-21T02:04:22;18.23;;;3.05;;
58214;SDS011;44011;52.218;1.480;2024-02-21T02:06:47;13.65;;;4.07;;
58214;SDS011;44011;52.218;1.480;2024-02-21T02:09:13;10.23;;;2.75;;
58214;SDS011;44011;52.218;1.480;2024-02-21T02:11:38;8.57;;;2.70;;
58214;SDS011;44011;52.218;1.480;2024-02-21T02:14:04;13.75;;;2.80;;
58214;SDS011;44011;52.218;1.480;2024-02-21T02:16:29;12.52;;;3.08;;
58214;SDS011;44011;52.218;1.480;2024-02-21T02:18:54;10.60;;;3.20;;
58214;SDS011;44011;52.218;1.480;2024-02-21T02:21:23;6.68;;;2.70;;
58214;SDS011;44011;52.218;1.480;2024-02-21T02:23:51;9.93;;;2.42;;
58214;SDS011;44011;52.218;1.480;2024-02-21T02:26:17;9.20;;;2.58;;
58214;SDS011;44011;52.218;1.480;2024-02-21T02:28:42;10.15;;;3.22;;
58214;SDS011;44011;52.218;1.480;2024-02-21T02:31:07;10.27;;;2.45;;
58214;SDS011;44011;52.218;1.480;2024-02-21T02:33:32;7.13;;;2.45;;
58214;SDS011;44011;52.218;1.480;2024-02-21T02:35:57;14.32;;;3.03;;
58214;SDS011;44011;52.218;1.480;2024-02-21T02:38:23;13.20;;;2.78;;
58214;SDS011;44011;52.218;1.480;2024-02-21T02:40:49;12.57;;;3.28;;
58214;SDS011;44011;52.218;1.480;2024-02-21T02:43:14;9.32;;;2.67;;
58214;SDS011;44011;52.218;1.480;2024-02-21T02:45:40;9.98;;;4.25;;
58214;SDS011;44011;52.218;1.480;2024-02-21T02:48:05;10.93;;;2.63;;
58214;SDS011;44011;52.218;1.480;2024-02-21T02:50:30;10.70;;;2.80;;
58214;SDS011;44011;52.218;1.480;2024-02-21T02:52:56;7.95;;;2.70;;
58214;SDS011;44011;52.218;1.480;2024-02-21T02:55:21;13.75;;;2.50;;
58214;SDS011;44011;52.218;1.480;2024-02-21T02:57:46;13.55;;;2.50;;
58214;SDS011;44011;52.218;1.480;2024-02-21T03:00:12;10.73;;;3.53;;
58214;SDS011;44011;52.218;1.480;2024-02-21T03:02:38;10.32;;;2.13;;
58214;SDS011;44011;52.218;1.480;2024-02-21T03:05:12;11.40;;;2.40;;
58214;SDS011;44011;52.218;1.480;2024-02-21T03:07:38;9.02;;;2.78;;
58214;SDS011;44011;52.218;1.480;2024-02-21T03:10:03;8.80;;;2.83;;
58214;SDS011;44011;52.218;1.480;2024-02-21T03:12:28;17.83;;;3.42;;
58214;SDS011;44011;52.218;1.480;2024-02-21T03:14:54;13.65;;;2.75;;
58214;SDS011;44011;52.218;1.480;2024-02-21T03:17:19;18.75;;;2.50;;
58214;SDS011;44011;52.218;1.480;2024-02-21T03:19:44;5.97;;;2.42;;
58214;SDS011;44011;52.218;1.480;2024-02-21T03:22:10;13.20;;;3.08;;
58214;SDS011;44011;52.218;1.480;2024-02-21T03:24:35;9.85;;;2.53;;
58214;SDS011;44011;52.218;1.480;2024-02-21T03:27:00;7.32;;;3.22;;
58214;SDS011;44011;52.218;1.480;2024-02-21T03:29:26;9.88;;;3.35;;
58214;SDS011;44011;52.218;1.480;2024-02-21T03:31:51;8.00;;;2.92;;
58214;SDS011;44011;52.218;1.480;2024-02-21T03:34:16;18.98;;;3.78;;
58214;SDS011;44011;52.218;1.480;2024-02-21T03:36:42;14.48;;;3.42;;
58214;SDS011;44011;52.218;1.480;2024-02-21T03:39:07;7.20;;;2.70;;
58214;SDS011;44011;52.218;1.480;2024-02-21T03:41:34;13.65;;;2.85;;
58214;SDS011;44011;52.218;1.480;2024-02-21T03:43:59;9.95;;;2.80;;
58214;SDS011;44011;52.218;1.480;2024-02-21T03:46:24;6.30;;;2.92;;
58214;SDS011;44011;52.218;1.480;2024-02-21T03:48:50;14.20;;;4.82;;
58214;SDS011;44011;52.218;1.480;2024-02-21T03:51:15;12.93;;;3.47;;
58214;SDS011;44011;52.218;1.480;2024-02-21T03:53:40;6.45;;;2.33;;
58214;SDS011;44011;52.218;1.480;2024-02-21T03:56:06;14.90;;;3.22;;
58214;SDS011;44011;52.218;1.480;2024-02-21T03:58:32;13.57;;;5.00;;
58214;SDS011;44011;52.218;1.480;2024-02-21T04:00:59;7.22;;;3.75;;
58214;SDS011;44011;52.218;1.480;2024-02-21T04:03:24;17.05;;;3.25;;
58214;SDS011;44011;52.218;1.480;2024-02-21T04:05:50;13.77;;;3.10;;
58214;SDS011;44011;52.218;1.480;2024-02-21T04:08:15;12.80;;;3.47;;
58214;SDS011;44011;52.218;1.480;2024-02-21T04:10:41;14.88;;;3.67;;
58214;SDS011;44011;52.218;1.480;2024-02-21T04:13:06;11.90;;;3.15;;
58214;SDS011;44011;52.218;1.480;2024-02-21T04:15:31;11.98;;;4.40;;
58214;SDS011;44011;52.218;1.480;2024-02-21T04:17:57;11.68;;;3.30;;
58214;SDS011;44011;52.218;1.480;2024-02-21T04:20:22;11.23;;;3.63;;
58214;SDS011;44011;52.218;1.480;2024-02-21T04:22:48;15.73;;;4.53;;
58214;SDS011;44011;52.218;1.480;2024-02-21T04:25:13;9.63;;;3.13;;
58214;SDS011;44011;52.218;1.480;2024-02-21T04:27:39;11.98;;;3.53;;
58214;SDS011;44011;52.218;1.480;2024-02-21T04:30:04;17.50;;;3.80;;
58214;SDS011;44011;52.218;1.480;2024-02-21T04:32:29;15.45;;;4.43;;
58214;SDS011;44011;52.218;1.480;2024-02-21T04:34:55;13.07;;;3.75;;
58214;SDS011;44011;52.218;1.480;2024-02-21T04:37:20;18.92;;;4.40;;
58214;SDS011;44011;52.218;1.480;2024-02-21T04:39:45;13.43;;;3.85;;
58214;SDS011;44011;52.218;1.480;2024-02-21T04:42:10;19.98;;;3.72;;
58214;SDS011;44011;52.218;1.480;2024-02-21T04:44:36;21.00;;;4.32;;
58214;SDS011;44011;52.218;1.480;2024-02-21T04:47:01;10.82;;;3.50;;
58214;SDS011;44011;52.218;1.480;2024-02-21T04:49:26;18.70;;;3.92;;
58214;SDS011;44011;52.218;1.480;2024-02-21T04:51:51;9.38;;;2.75;;
58214;SDS011;44011;52.218;1.480;2024-02-21T04:54:17;18.35;;;3.50;;
58214;SDS011;44011;52.218;1.480;2024-02-21T04:56:42;9.07;;;3.45;;
58214;SDS011;44011;52.218;1.480;2024-02-21T04:59:07;10.00;;;3.75;;
58214;SDS011;44011;52.218;1.480;2024-02-21T05:01:32;10.38;;;3.22;;
58214;SDS011;44011;52.218;1.480;2024-02-21T05:03:58;7.35;;;2.67;;
58214;SDS011;44011;52.218;1.480;2024-02-21T05:06:23;10.52;;;3.22;;
58214;SDS011;44011;52.218;1.480;2024-02-21T05:08:48;16.48;;;3.60;;
58214;SDS011;44011;52.218;1.480;2024-02-21T05:11:14;14.35;;;4.00;;
58214;SDS011;44011;52.218;1.480;2024-02-21T05:13:39;15.52;;;3.42;;
58214;SDS011;44011;52.218;1.480;2024-02-21T05:16:05;8.70;;;2.72;;
58214;SDS011;44011;52.218;1.480;2024-02-21T05:18:30;9.23;;;3.30;;
58214;SDS011;44011;52.218;1.480;2024-02-21T05:20:55;11.07;;;3.78;;
58214;SDS011;44011;52.218;1.480;2024-02-21T05:23:20;12.98;;;3.17;;
58214;SDS011;44011;52.218;1.480;2024-02-21T05:25:46;10.30;;;3.03;;
58214;SDS011;44011;52.218;1.480;2024-02-21T05:28:11;12.30;;;3.33;;
58214;SDS011;44011;52.218;1.480;2024-02-21T05:30:36;9.88;;;3.42;;
58214;SDS011;44011;52.218;1.480;2024-02-21T05:33:05;18.67;;;3.53;;
58214;SDS011;44011;52.218;1.480;2024-02-21T05:35:30;10.45;;;3.42;;
58214;SDS011;44011;52.218;1.480;2024-02-21T05:37:55;19.52;;;3.70;;
58214;SDS011;44011;52.218;1.480;2024-02-21T05:40:21;11.30;;;3.40;;
58214;SDS011;44011;52.218;1.480;2024-02-21T05:42:46;10.85;;;3.38;;
58214;SDS011;44011;52.218;1.480;2024-02-21T05:45:11;21.50;;;3.70;;
58214;SDS011;44011;52.218;1.480;2024-02-21T05:47:37;17.60;;;4.05;;
58214;SDS011;44011;52.218;1.480;2024-02-21T05:50:02;13.95;;;3.42;;
58214;SDS011;44011;52.218;1.480;2024-02-21T05:52:27;13.88;;;4.00;;
58214;SDS011;44011;52.218;1.480;2024-02-21T05:54:52;12.05;;;3.53;;
58214;SDS011;44011;52.218;1.480;2024-02-21T05:57:18;20.30;;;3.58;;
58214;SDS011;44011;52.218;1.480;2024-02-21T05:59:43;20.98;;;4.50;;
58214;SDS011;44011;52.218;1.480;2024-02-21T06:02:09;14.10;;;4.07;;
58214;SDS011;44011;52.218;1.480;2024-02-21T06:04:34;16.83;;;3.95;;
58214;SDS011;44011;52.218;1.480;2024-02-21T06:06:59;11.27;;;3.33;;
58214;SDS011;44011;52.218;1.480;2024-02-21T06:09:25;17.98;;;3.60;;
58214;SDS011;44011;52.218;1.480;2024-02-21T06:11:50;14.52;;;3.67;;
58214;SDS011;44011;52.218;1.480;2024-02-21T06:14:15;7.85;;;3.30;;
58214;SDS011;44011;52.218;1.480;2024-02-21T06:16:40;14.60;;;4.90;;
58214;SDS011;44011;52.218;1.480;2024-02-21T06:19:06;14.77;;;4.35;;
58214;SDS011;44011;52.218;1.480;2024-02-21T06:21:31;10.45;;;3.38;;
58214;SDS011;44011;52.218;1.480;2024-02-21T06:23:56;12.30;;;3.60;;
58214;SDS011;44011;52.218;1.480;2024-02-21T06:26:21;13.50;;;3.38;;
58214;SDS011;44011;52.218;1.480;2024-02-21T06:28:46;14.35;;;3.40;;
58214;SDS011;44011;52.218;1.480;2024-02-21T06:31:12;7.70;;;2.42;;
58214;SDS011;44011;52.218;1.480;2024-02-21T06:33:37;10.10;;;3.45;;
58214;SDS011;44011;52.218;1.480;2024-02-21T06:36:02;13.18;;;3.42;;
58214;SDS011;44011;52.218;1.480;2024-02-21T06:38:27;12.25;;;3.35;;
58214;SDS011;44011;52.218;1.480;2024-02-21T06:40:53;11.25;;;3.42;;
58214;SDS011;44011;52.218;1.480;2024-02-21T06:43:20;15.73;;;3.40;;
58214;SDS011;44011;52.218;1.480;2024-02-21T06:45:45;16.75;;;3.83;;
58214;SDS011;44011;52.218;1.480;2024-02-21T06:48:16;9.52;;;4.15;;
58214;SDS011;44011;52.218;1.480;2024-02-21T06:50:41;7.15;;;3.20;;
58214;SDS011;44011;52.218;1.480;2024-02-21T06:53:06;12.70;;;3.22;;
58214;SDS011;44011;52.218;1.480;2024-02-21T06:55:31;11.15;;;3.15;;
58214;SDS011;44011;52.218;1.480;2024-02-21T06:57:57;8.13;;;3.22;;
58214;SDS011;44011;52.218;1.480;2024-02-21T07:00:22;8.10;;;2.33;;
58214;SDS011;44011;52.218;1.480;2024-02-21T07:02:48;14.73;;;2.88;;
58214;SDS011;44011;52.218;1.480;2024-02-21T07:05:13;12.90;;;3.17;;
58214;SDS011;44011;52.218;1.480;2024-02-21T07:07:38;10.82;;;2.75;;
58214;SDS011;44011;52.218;1.480;2024-02-21T07:10:05;6.97;;;2.67;;
58214;SDS011;44011;52.218;1.480;2024-02-21T07:12:30;14.00;;;3.10;;
58214;SDS011;44011;52.218;1.480;2024-02-21T07:14:55;10.13;;;2.50;;
58214;SDS011;44011;52.218;1.480;2024-02-21T07:17:21;8.55;;;2.30;;
58214;SDS011;44011;52.218;1.480;2024-02-21T07:19:46;8.88;;;2.63;;
58214;SDS011;44011;52.218;1.480;2024-02-21T07:22:11;12.82;;;2.75;;
58214;SDS011;44011;52.218;1.480;2024-02-21T07:24:36;9.75;;;3.20;;
58214;SDS011;44011;52.218;1.480;2024-02-21T07:27:02;9.63;;;3.17;;
58214;SDS011;44011;52.218;1.480;2024-02-21T07:29:29;7.93;;;2.95;;
58214;SDS011;44011;52.218;1.480;2024-02-21T07:31:55;11.80;;;2.97;;
58214;SDS011;44011;52.218;1.480;2024-02-21T07:34:20;17.55;;;3.47;;
58214;SDS011;44011;52.218;1.480;2024-02-21T07:36:46;11.02;;;2.60;;
58214;SDS011;44011;52.218;1.480;2024-02-21T07:39:11;8.93;;;3.25;;
58214;SDS011;44011;52.218;1.480;2024-02-21T07:41:37;11.63;;;2.92;;
58214;SDS011;44011;52.218;1.480;2024-02-21T07:44:04;9.73;;;3.90;;
58214;SDS011;44011;52.218;1.480;2024-02-21T07:46:30;11.07;;;3.55;;
58214;SDS011;44011;52.218;1.480;2024-02-21T07:48:55;4.65;;;3.15;;
58214;SDS011;44011;52.218;1.480;2024-02-21T07:51:20;5.97;;;2.85;;
58214;SDS011;44011;52.218;1.480;2024-02-21T07:53:45;7.55;;;3.17;;
58214;SDS011;44011;52.218;1.480;2024-02-21T07:56:14;16.75;;;4.10;;
58214;SDS011;44011;52.218;1.480;2024-02-21T07:58:40;14.38;;;3.95;;
58214;SDS011;44011;52.218;1.480;2024-02-21T08:01:05;7.68;;;3.03;;
58214;SDS011;44011;52.218;1.480;2024-02-21T08:03:31;6.90;;;3.72;;
58214;SDS011;44011;52.218;1.480;2024-02-21T08:05:56;9.63;;;3.22;;
58214;SDS011;44011;52.218;1.480;2024-02-21T08:08:21;10.43;;;4.60;;
58214;SDS011;44011;52.218;1.480;2024-02-21T08:10:47;13.45;;;4.13;;
58214;SDS011;44011;52.218;1.480;2024-02-21T08:13:12;12.43;;;4.90;;
58214;SDS011;44011;52.218;1.480;2024-02-21T08:15:38;10.73;;;3.50;;
58214;SDS011;44011;52.218;1.480;2024-02-21T08:18:04;11.68;;;4.50;;
58214;SDS011;44011;52.218;1.480;2024-02-21T08:20:30;10.73;;;5.20;;
58214;SDS011;44011;52.218;1.480;2024-02-21T08:22:55;13.73;;;4.00;;
58214;SDS011;44011;52.218;1.480;2024-02-21T08:25:20;16.73;;;4.55;;
58214;SDS011;44011;52.218;1.480;2024-02-21T08:27:46;11.52;;;4.00;;
58214;SDS011;44011;52.218;1.480;2024-02-21T08:30:11;15.82;;;4.82;;
58214;SDS011;44011;52.218;1.480;2024-02-21T08:32:36;11.23;;;3.65;;
58214;SDS011;44011;52.218;1.480;2024-02-21T08:35:02;14.10;;;4.47;;
58214;SDS011;44011;52.218;1.480;2024-02-21T08:37:28;8.30;;;4.15;;
58214;SDS011;44011;52.218;1.480;2024-02-21T08:39:53;7.88;;;3.35;;
58214;SDS011;44011;52.218;1.480;2024-02-21T08:42:18;13.45;;;4.10;;
58214;SDS011;44011;52.218;1.480;2024-02-21T08:44:44;12.15;;;4.68;;
58214;SDS011;44011;52.218;1.480;2024-02-21T08:47:09;10.60;;;3.47;;
58214;SDS011;44011;52.218;1.480;2024-02-21T08:49:35;7.97;;;3.60;;
58214;SDS011;44011;52.218;1.480;2024-02-21T08:52:01;12.52;;;3.47;;
58214;SDS011;44011;52.218;1.480;2024-02-21T08:54:26;14.57;;;4.25;;
58214;SDS011;44011;52.218;1.480;2024-02-21T08:56:51;13.40;;;3.97;;
58214;SDS011;44011;52.218;1.480;2024-02-21T08:59:17;10.18;;;3.95;;
58214;SDS011;44011;52.218;1.480;2024-02-21T09:01:42;16.40;;;4.47;;
58214;SDS011;44011;52.218;1.480;2024-02-21T09:04:07;9.52;;;3.60;;
58214;SDS011;44011;52.218;1.480;2024-02-21T09:06:32;7.88;;;3.63;;
58214;SDS011;44011;52.218;1.480;2024-02-21T09:09:01;14.88;;;5.20;;
58214;SDS011;44011;52.218;1.480;2024-02-21T09:11:26;11.88;;;3.95;;
58214;SDS011;44011;52.218;1.480;2024-02-21T09:13:52;12.60;;;3.70;;
58214;SDS011;44011;52.218;1.480;2024-02-21T09:16:17;6.60;;;3.88;;
58214;SDS011;44011;52.218;1.480;2024-02-21T09:18:43;14.88;;;3.45;;
58214;SDS011;44011;52.218;1.480;2024-02-21T09:21:08;10.32;;;3.78;;
58214;SDS011;44011;52.218;1.480;2024-02-21T09:23:33;13.55;;;4.18;;
58214;SDS011;44011;52.218;1.480;2024-02-21T09:25:58;9.68;;;3.65;;
58214;SDS011;44011;52.218;1.480;2024-02-21T09:28:25;12.10;;;3.63;;
58214;SDS011;44011;52.218;1.480;2024-02-21T09:30:50;14.50;;;3.63;;
58214;SDS011;44011;52.218;1.480;2024-02-21T09:33:16;10.50;;;3.67;;
58214;SDS011;44011;52.218;1.480;2024-02-21T09:35:41;14.65;;;4.05;;
58214;SDS011;44011;52.218;1.480;2024-02-21T09:38:06;12.32;;;3.35;;
58214;SDS011;44011;52.218;1.480;2024-02-21T09:40:32;16.20;;;4.45;;
58214;SDS011;44011;52.218;1.480;2024-02-21T09:43:03;18.63;;;4.28;;
58214;SDS011;44011;52.218;1.480;2024-02-21T09:45:29;10.45;;;4.25;;
58214;SDS011;44011;52.218;1.480;2024-02-21T09:50:53;14.77;;;5.53;;
58214;SDS011;44011;52.218;1.480;2024-02-21T09:53:20;10.90;;;3.60;;
58214;SDS011;44011;52.218;1.480;2024-02-21T09:55:46;12.27;;;3.35;;
58214;SDS011;44011;52.218;1.480;2024-02-21T09:58:12;13.20;;;4.20;;
58214;SDS011;44011;52.218;1.480;2024-02-21T10:00:37;13.73;;;3.63;;
58214;SDS011;44011;52.218;1.480;2024-02-21T10:03:03;12.00;;;3.40;;
58214;SDS011;44011;52.218;1.480;2024-02-21T10:05:34;10.35;;;3.42;;
58214;SDS011;44011;52.218;1.480;2024-02-21T10:08:00;7.50;;;4.20;;
58214;SDS011;44011;52.218;1.480;2024-02-21T10:10:25;12.25;;;3.30;;
58214;SDS011;44011;52.218;1.480;2024-02-21T10:12:52;16.92;;;3.33;;
58214;SDS011;44011;52.218;1.480;2024-02-21T10:15:22;14.38;;;3.95;;
58214;SDS011;44011;52.218;1.480;2024-02-21T10:17:49;10.55;;;3.35;;
58214;SDS011;44011;52.218;1.480;2024-02-21T10:20:15;11.20;;;3.65;;
58214;SDS011;44011;52.218;1.480;2024-02-21T10:22:41;18.92;;;3.83;;
58214;SDS011;44011;52.218;1.480;2024-02-21T10:25:09;11.57;;;3.35;;
58214;SDS011;44011;52.218;1.480;2024-02-21T10:27:36;12.40;;;2.63;;
58214;SDS011;44011;52.218;1.480;2024-02-21T10:30:01;9.32;;;3.13;;
58214;SDS011;44011;52.218;1.480;2024-02-21T10:32:27;12.52;;;3.63;;
58214;SDS011;44011;52.218;1.480;2024-02-21T10:35:00;10.38;;;3.20;;
58214;SDS011;44011;52.218;1.480;2024-02-21T10:37:25;12.38;;;3.78;;
58214;SDS011;44011;52.218;1.480;2024-02-21T10:39:51;8.93;;;2.90;;
58214;SDS011;44011;52.218;1.480;2024-02-21T10:42:16;6.05;;;3.03;;
58214;SDS011;44011;52.218;1.480;2024-02-21T10:44:43;11.73;;;2.95;;
58214;SDS011;44011;52.218;1.480;2024-02-21T10:47:11;12.48;;;2.72;;
58214;SDS011;44011;52.218;1.480;2024-02-21T10:49:39;8.25;;;2.85;;
58214;SDS011;44011;52.218;1.480;2024-02-21T10:52:21;17.17;;;3.15;;
58214;SDS011;44011;52.218;1.480;2024-02-21T10:57:18;12.27;;;2.75;;
58214;SDS011;44011;52.218;1.480;2024-02-21T10:59:44;8.93;;;2.72;;
58214;SDS011;44011;52.218;1.480;2024-02-21T11:02:10;11.40;;;3.03;;
58214;SDS011;44011;52.218;1.480;2024-02-21T11:04:35;12.95;;;2.75;;
58214;SDS011;44011;52.218;1.480;2024-02-21T11:07:01;13.70;;;3.28;;
58214;SDS011;44011;52.218;1.480;2024-02-21T11:09:32;6.30;;;2.80;;
58214;SDS011;44011;52.218;1.480;2024-02-21T11:11:57;5.97;;;2.50;;
58214;SDS011;44011;52.218;1.480;2024-02-21T11:14:25;13.48;;;3.28;;
58214;SDS011;44011;52.218;1.480;2024-02-21T11:16:51;11.00;;;2.50;;
58214;SDS011;44011;52.218;1.480;2024-02-21T11:19:22;5.20;;;2.30;;
58214;SDS011;44011;52.218;1.480;2024-02-21T11:21:49;8.05;;;2.10;;
58214;SDS011;44011;52.218;1.480;2024-02-21T11:24:25;6.82;;;2.92;;
58214;SDS011;44011;52.218;1.480;2024-02-21T11:26:50;7.57;;;2.47;;
58214;SDS011;44011;52.218;1.480;2024-02-21T11:29:15;8.90;;;3.70;;
58214;SDS011;44011;52.218;1.480;2024-02-21T11:31:47;7.90;;;2.33;;
58214;SDS011;44011;52.218;1.480;2024-02-21T11:34:16;6.50;;;2.25;;
58214;SDS011;44011;52.218;1.480;2024-02-21T11:36:49;9.40;;;2.60;;
58214;SDS011;44011;52.218;1.480;2024-02-21T11:39:33;6.65;;;2.33;;
58214;SDS011;44011;52.218;1.480;2024-02-21T11:42:05;6.35;;;2.03;;
58214;SDS011;44011;52.218;1.480;2024-02-21T11:44:34;18.60;;;3.67;;
58214;SDS011;44011;52.218;1.480;2024-02-21T11:46:59;9.70;;;2.08;;
58214;SDS011;44011;52.218;1.480;2024-02-21T11:49:25;10.45;;;1.73;;
58214;SDS011;44011;52.218;1.480;2024-02-21T11:51:57;11.25;;;2.28;;
58214;SDS011;44011;52.218;1.480;2024-02-21T11:54:23;6.68;;;2.25;;
58214;SDS011;44011;52.218;1.480;2024-02-21T11:56:48;11.10;;;2.35;;
58214;SDS011;44011;52.218;1.480;2024-02-21T11:59:13;7.90;;;2.13;;
58214;SDS011;44011;52.218;1.480;2024-02-21T12:01:39;11.27;;;2.20;;
58214;SDS011;44011;52.218;1.480;2024-02-21T12:04:04;7.35;;;2.80;;
58214;SDS011;44011;52.218;1.480;2024-02-21T12:06:29;6.97;;;2.13;;
58214;SDS011;44011;52.218;1.480;2024-02-21T12:08:57;12.55;;;2.47;;
58214;SDS011;44011;52.218;1.480;2024-02-21T12:11:23;15.40;;;3.00;;
58214;SDS011;44011;52.218;1.480;2024-02-21T12:14:00;16.60;;;2.95;;
58214;SDS011;44011;52.218;1.480;2024-02-21T12:16:27;8.43;;;1.90;;
58214;SDS011;44011;52.218;1.480;2024-02-21T12:18:53;7.53;;;2.47;;
58214;SDS011;44011;52.218;1.480;2024-02-21T12:21:18;10.77;;;2.53;;
58214;SDS011;44011;52.218;1.480;2024-02-21T12:23:44;11.07;;;2.85;;
58214;SDS011;44011;52.218;1.480;2024-02-21T12:26:09;7.78;;;2.22;;
58214;SDS011;44011;52.218;1.480;2024-02-21T12:28:34;10.05;;;2.63;;
58214;SDS011;44011;52.218;1.480;2024-02-21T12:30:59;8.38;;;2.38;;
58214;SDS011;44011;52.218;1.480;2024-02-21T12:33:24;7.75;;;2.30;;
58214;SDS011;44011;52.218;1.480;2024-02-21T12:35:50;10.93;;;2.95;;
58214;SDS011;44011;52.218;1.480;2024-02-21T12:38:15;13.23;;;2.85;;
58214;SDS011;44011;52.218;1.480;2024-02-21T12:40:40;11.80;;;3.00;;
58214;SDS011;44011;52.218;1.480;2024-02-21T12:43:06;7.95;;;2.05;;
58214;SDS011;44011;52.218;1.480;2024-02-21T12:45:31;14.00;;;2.80;;
58214;SDS011;44011;52.218;1.480;2024-02-21T12:47:57;11.38;;;3.20;;
58214;SDS011;44011;52.218;1.480;2024-02-21T12:50:22;12.68;;;2.72;;
58214;SDS011;44011;52.218;1.480;2024-02-21T12:52:48;12.35;;;3.50;;
58214;SDS011;44011;52.218;1.480;2024-02-21T12:55:14;9.82;;;2.35;;
58214;SDS011;44011;52.218;1.480;2024-02-21T12:57:40;5.05;;;2.30;;
58214;SDS011;44011;52.218;1.480;2024-02-21T13:00:05;9.55;;;2.20;;
58214;SDS011;44011;52.218;1.480;2024-02-21T13:02:33;7.32;;;1.92;;
58214;SDS011;44011;52.218;1.480;2024-02-21T13:04:59;8.35;;;2.33;;
58214;SDS011;44011;52.218;1.480;2024-02-21T13:07:25;9.25;;;2.05;;
58214;SDS011;44011;52.218;1.480;2024-02-21T13:09:50;11.60;;;2.22;;
58214;SDS011;44011;52.218;1.480;2024-02-21T13:12:15;11.85;;;1.95;;
58214;SDS011;44011;52.218;1.480;2024-02-21T13:14:41;3.58;;;1.20;;
58214;SDS011;44011;52.218;1.480;2024-02-21T13:17:08;4.63;;;2.15;;
58214;SDS011;44011;52.218;1.480;2024-02-21T13:19:34;6.25;;;1.63;;
58214;SDS011;44011;52.218;1.480;2024-02-21T13:21:59;7.13;;;2.13;;
58214;SDS011;44011;52.218;1.480;2024-02-21T13:24:24;4.15;;;1.20;;
58214;SDS011;44011;52.218;1.480;2024-02-21T13:26:50;8.88;;;1.50;;
58214;SDS011;44011;52.218;1.480;2024-02-21T13:29:15;7.85;;;1.80;;
58214;SDS011;44011;52.218;1.480;2024-02-21T13:31:40;4.90;;;1.38;;
58214;SDS011;44011;52.218;1.480;2024-02-21T13:34:05;8.10;;;1.40;;
58214;SDS011;44011;52.218;1.480;2024-02-21T13:36:31;4.55;;;1.40;;
58214;SDS011;44011;52.218;1.480;2024-02-21T13:38:56;6.32;;;1.60;;
58214;SDS011;44011;52.218;1.480;2024-02-21T13:41:22;7.40;;;2.13;;
58214;SDS011;44011;52.218;1.480;2024-02-21T13:43:48;5.10;;;1.60;;
58214;SDS011;44011;52.218;1.480;2024-02-21T13:46:14;3.92;;;1.40;;
58214;SDS011;44011;52.218;1.480;2024-02-21T13:48:39;4.45;;;1.50;;
58214;SDS011;44011;52.218;1.480;2024-02-21T13:51:04;7.70;;;1.42;;
58214;SDS011;44011;52.218;1.480;2024-02-21T13:53:29;12.20;;;1.73;;
58214;SDS011;44011;52.218;1.480;2024-02-21T13:55:55;8.68;;;1.85;;
58214;SDS011;44011;52.218;1.480;2024-02-21T13:58:20;6.53;;;1.40;;
58214;SDS011;44011;52.218;1.480;2024-02-21T14:00:46;9.45;;;1.70;;
58214;SDS011;44011;52.218;1.480;2024-02-21T14:03:11;6.38;;;1.75;;
58214;SDS011;44011;52.218;1.480;2024-02-21T14:05:36;3.80;;;1.50;;
58214;SDS011;44011;52.218;1.480;2024-02-21T14:08:01;6.45;;;1.42;;
58214;SDS011;44011;52.218;1.480;2024-02-21T14:10:27;14.10;;;1.75;;
58214;SDS011;44011;52.218;1.480;2024-02-21T14:12:53;4.88;;;1.67;;
58214;SDS011;44011;52.218;1.480;2024-02-21T14:15:18;5.95;;;1.45;;
58214;SDS011;44011;52.218;1.480;2024-02-21T14:17:44;12.10;;;1.83;;
58214;SDS011;44011;52.218;1.480;2024-02-21T14:20:09;11.05;;;1.60;;
58214;SDS011;44011;52.218;1.480;2024-02-21T14:22:34;5.93;;;1.58;;
58214;SDS011;44011;52.218;1.480;2024-02-21T14:25:02;8.95;;;2.13;;
58214;SDS011;44011;52.218;1.480;2024-02-21T14:27:27;6.82;;;1.80;;
58214;SDS011;44011;52.218;1.480;2024-02-21T14:29:53;7.55;;;1.90;;
58214;SDS011;44011;52.218;1.480;2024-02-21T14:32:18;8.10;;;2.72;;
58214;SDS011;44011;52.218;1.480;2024-02-21T14:34:44;8.68;;;2.05;;
58214;SDS011;44011;52.218;1.480;2024-02-21T14:37:10;5.90;;;1.75;;